sensor_id;sensor_type;location;lat;lon;timestamp;P1;durP1;ratioP1;P2;durP2;ratioP2
36191;SDS011;22233;42.708;23.360;2024-03-23T00:55:33;14.10;;;10.32;;
36191;SDS011;22233;42.708;23.360;2024-03-23T00:57:58;13.90;;;10.05;;
36191;SDS011;22233;42.708;23.360;2024-03-23T01:00:23;15.35;;;10.45;;
36191;SDS011;22233;42.708;23.360;2024-03-23T01:02:49;12.88;;;9.63;;
36191;SDS011;22233;42.708;23.360;2024-03-23T01:05:14;15.20;;;10.52;;
36191;SDS011;22233;42.708;23.360;2024-03-23T01:07:39;13.38;;;10.23;;
36191;SDS011;22233;42.708;23.360;2024-03-23T01:10:05;14.00;;;10.30;;
36191;SDS011;22233;42.708;23.360;2024-03-23T01:12:30;27.75;;;11.35;;
36191;SDS011;22233;42.708;23.360;2024-03-23T01:14:56;15.07;;;10.07;;
36191;SDS011;22233;42.708;23.360;2024-03-23T01:17:21;14.05;;;10.25;;
36191;SDS011;22233;42.708;23.360;2024-03-23T01:19:47;14.25;;;10.35;;
36191;SDS011;22233;42.708;23.360;2024-03-23T01:22:12;15.32;;;9.73;;
36191;SDS011;22233;42.708;23.360;2024-03-23T01:24:37;14.90;;;10.45;;
36191;SDS011;22233;42.708;23.360;2024-03-23T01:27:03;15.95;;;11.10;;
36191;SDS011;22233;42.708;23.360;2024-03-23T01:29:28;13.23;;;10.02;;
36191;SDS011;22233;42.708;23.360;2024-03-23T01:31:54;17.88;;;11.15;;
36191;SDS011;22233;42.708;23.360;2024-03-23T01:34:19;16.70;;;11.57;;
36191;SDS011;22233;42.708;23.360;2024-03-23T01:36:45;16.80;;;11.85;;
36191;SDS011;22233;42.708;23.360;2024-03-23T01:39:11;19.15;;;12.60;;
36191;SDS011;22233;42.708;23.360;2024-03-23T01:41:37;21.05;;;12.80;;
36191;SDS011;22233;42.708;23.360;2024-03-23T01:46:32;17.58;;;11.82;;
36191;SDS011;22233;42.708;23.360;2024-03-23T01:48:57;17.73;;;11.88;;
36191;SDS011;22233;42.708;23.360;2024-03-23T01:51:23;19.63;;;13.48;;
36191;SDS011;22233;42.708;23.360;2024-03-23T01:53:48;18.10;;;12.63;;
36191;SDS011;22233;42.708;23.360;2024-03-23T01:56:14;23.08;;;13.38;;
36191;SDS011;22233;42.708;23.360;2024-03-23T01:58:40;19.15;;;12.68;;
36191;SDS011;22233;42.708;23.360;2024-03-23T02:01:06;21.85;;;14.15;;
36191;SDS011;22233;42.708;23.360;2024-03-23T02:03:31;24.60;;;14.63;;
36191;SDS011;22233;42.708;23.360;2024-03-23T02:05:57;19.40;;;13.70;;
36191;SDS011;22233;42.708;23.360;2024-03-23T02:08:23;24.00;;;14.73;;
36191;SDS011;22233;42.708;23.360;2024-03-23T02:10:49;22.00;;;13.48;;
36191;SDS011;22233;42.708;23.360;2024-03-23T02:13:15;21.23;;;14.65;;
36191;SDS011;22233;42.708;23.360;2024-03-23T02:15:41;22.73;;;14.35;;
36191;SDS011;22233;42.708;23.360;2024-03-23T02:18:07;20.42;;;13.93;;
36191;SDS011;22233;42.708;23.360;2024-03-23T02:20:33;21.65;;;14.65;;
36191;SDS011;22233;42.708;23.360;2024-03-23T02:22:59;26.23;;;16.77;;
36191;SDS011;22233;42.708;23.360;2024-03-23T02:25:25;27.58;;;16.25;;
36191;SDS011;22233;42.708;23.360;2024-03-23T02:27:50;25.00;;;17.00;;
36191;SDS011;22233;42.708;23.360;2024-03-23T02:30:15;25.58;;;14.90;;
36191;SDS011;22233;42.708;23.360;2024-03-23T02:32:41;23.73;;;14.75;;
36191;SDS011;22233;42.708;23.360;2024-03-23T02:35:06;24.75;;;13.73;;
36191;SDS011;22233;42.708;23.360;2024-03-23T02:37:32;17.75;;;11.70;;
36191;SDS011;22233;42.708;23.360;2024-03-23T02:39:57;15.38;;;10.60;;
36191;SDS011;22233;42.708;23.360;2024-03-23T02:42:23;17.15;;;10.70;;
36191;SDS011;22233;42.708;23.360;2024-03-23T02:44:49;15.57;;;10.27;;
36191;SDS011;22233;42.708;23.360;2024-03-23T02:47:14;19.35;;;12.88;;
36191;SDS011;22233;42.708;23.360;2024-03-23T02:49:39;16.08;;;10.90;;
36191;SDS011;22233;42.708;23.360;2024-03-23T02:52:05;14.30;;;10.15;;
36191;SDS011;22233;42.708;23.360;2024-03-23T02:54:30;15.20;;;9.65;;
36191;SDS011;22233;42.708;23.360;2024-03-23T02:56:56;15.30;;;9.98;;
36191;SDS011;22233;42.708;23.360;2024-03-23T02:59:21;16.08;;;10.55;;
36191;SDS011;22233;42.708;23.360;2024-03-23T03:01:47;17.95;;;10.25;;
36191;SDS011;22233;42.708;23.360;2024-03-23T03:04:12;13.80;;;9.65;;
36191;SDS011;22233;42.708;23.360;2024-03-23T03:06:37;19.23;;;11.57;;
36191;SDS011;22233;42.708;23.360;2024-03-23T03:09:03;15.55;;;11.05;;
36191;SDS011;22233;42.708;23.360;2024-03-23T03:11:28;14.07;;;9.63;;
36191;SDS011;22233;42.708;23.360;2024-03-23T03:13:53;12.20;;;8.95;;
36191;SDS011;22233;42.708;23.360;2024-03-23T03:16:19;13.38;;;9.55;;
36191;SDS011;22233;42.708;23.360;2024-03-23T03:18:44;12.43;;;8.90;;
36191;SDS011;22233;42.708;23.360;2024-03-23T03:21:11;12.40;;;9.43;;
36191;SDS011;22233;42.708;23.360;2024-03-23T03:23:38;14.32;;;9.05;;
36191;SDS011;22233;42.708;23.360;2024-03-23T03:26:06;11.38;;;8.90;;
36191;SDS011;22233;42.708;23.360;2024-03-23T03:28:32;12.77;;;8.70;;
36191;SDS011;22233;42.708;23.360;2024-03-23T03:33:26;9.75;;;7.22;;
36191;SDS011;22233;42.708;23.360;2024-03-23T03:35:52;9.65;;;8.15;;
36191;SDS011;22233;42.708;23.360;2024-03-23T03:38:18;13.63;;;9.00;;
36191;SDS011;22233;42.708;23.360;2024-03-23T03:40:43;13.00;;;7.95;;
36191;SDS011;22233;42.708;23.360;2024-03-23T03:43:09;13.82;;;8.77;;
36191;SDS011;22233;42.708;23.360;2024-03-23T03:45:34;10.23;;;8.02;;
36191;SDS011;22233;42.708;23.360;2024-03-23T03:48:00;15.23;;;7.80;;
36191;SDS011;22233;42.708;23.360;2024-03-23T03:50:25;11.25;;;7.53;;
36191;SDS011;22233;42.708;23.360;2024-03-23T03:52:50;11.43;;;7.80;;
36191;SDS011;22233;42.708;23.360;2024-03-23T03:55:16;12.32;;;8.10;;
36191;SDS011;22233;42.708;23.360;2024-03-23T03:57:41;11.02;;;8.32;;
36191;SDS011;22233;42.708;23.360;2024-03-23T04:00:07;12.48;;;8.00;;
36191;SDS011;22233;42.708;23.360;2024-03-23T04:02:36;10.82;;;8.65;;
36191;SDS011;22233;42.708;23.360;2024-03-23T04:05:05;11.10;;;8.23;;
36191;SDS011;22233;42.708;23.360;2024-03-23T04:07:31;13.05;;;8.20;;
36191;SDS011;22233;42.708;23.360;2024-03-23T04:09:56;11.48;;;7.93;;
36191;SDS011;22233;42.708;23.360;2024-03-23T04:12:21;13.05;;;7.93;;
36191;SDS011;22233;42.708;23.360;2024-03-23T04:14:48;9.77;;;7.38;;
36191;SDS011;22233;42.708;23.360;2024-03-23T04:17:13;10.02;;;7.00;;
36191;SDS011;22233;42.708;23.360;2024-03-23T04:19:38;10.98;;;6.78;;
36191;SDS011;22233;42.708;23.360;2024-03-23T04:22:04;11.75;;;7.80;;
36191;SDS011;22233;42.708;23.360;2024-03-23T04:24:30;10.45;;;8.10;;
36191;SDS011;22233;42.708;23.360;2024-03-23T04:26:55;13.80;;;8.45;;
36191;SDS011;22233;42.708;23.360;2024-03-23T04:29:20;14.98;;;8.35;;
36191;SDS011;22233;42.708;23.360;2024-03-23T04:31:46;15.52;;;8.82;;
36191;SDS011;22233;42.708;23.360;2024-03-23T04:34:12;12.48;;;7.90;;
36191;SDS011;22233;42.708;23.360;2024-03-23T04:36:38;11.85;;;8.23;;
36191;SDS011;22233;42.708;23.360;2024-03-23T04:39:03;11.88;;;8.43;;
36191;SDS011;22233;42.708;23.360;2024-03-23T04:41:29;15.02;;;8.48;;
36191;SDS011;22233;42.708;23.360;2024-03-23T04:43:55;11.65;;;8.20;;
36191;SDS011;22233;42.708;23.360;2024-03-23T04:46:20;9.57;;;7.50;;
36191;SDS011;22233;42.708;23.360;2024-03-23T04:48:45;7.47;;;5.97;;
36191;SDS011;22233;42.708;23.360;2024-03-23T04:51:16;10.13;;;6.78;;
36191;SDS011;22233;42.708;23.360;2024-03-23T04:53:46;10.98;;;6.63;;
36191;SDS011;22233;42.708;23.360;2024-03-23T04:56:11;9.90;;;7.20;;
36191;SDS011;22233;42.708;23.360;2024-03-23T04:58:37;10.07;;;7.53;;
36191;SDS011;22233;42.708;23.360;2024-03-23T05:01:02;9.05;;;7.00;;
36191;SDS011;22233;42.708;23.360;2024-03-23T05:03:27;12.60;;;8.02;;
36191;SDS011;22233;42.708;23.360;2024-03-23T05:05:53;13.13;;;7.78;;
36191;SDS011;22233;42.708;23.360;2024-03-23T05:08:19;10.48;;;8.05;;
36191;SDS011;22233;42.708;23.360;2024-03-23T05:10:44;13.40;;;7.32;;
36191;SDS011;22233;42.708;23.360;2024-03-23T05:13:10;10.68;;;7.50;;
36191;SDS011;22233;42.708;23.360;2024-03-23T05:15:36;10.10;;;7.22;;
36191;SDS011;22233;42.708;23.360;2024-03-23T05:18:02;10.07;;;7.18;;
36191;SDS011;22233;42.708;23.360;2024-03-23T05:20:28;10.50;;;6.93;;
36191;SDS011;22233;42.708;23.360;2024-03-23T05:22:54;10.15;;;6.68;;
36191;SDS011;22233;42.708;23.360;2024-03-23T05:25:20;9.48;;;6.90;;
36191;SDS011;22233;42.708;23.360;2024-03-23T05:27:45;11.85;;;8.18;;
36191;SDS011;22233;42.708;23.360;2024-03-23T05:30:11;11.80;;;7.47;;
36191;SDS011;22233;42.708;23.360;2024-03-23T05:32:36;8.95;;;7.40;;
36191;SDS011;22233;42.708;23.360;2024-03-23T05:35:05;11.48;;;7.32;;
36191;SDS011;22233;42.708;23.360;2024-03-23T05:37:32;11.60;;;8.43;;
36191;SDS011;22233;42.708;23.360;2024-03-23T05:39:59;11.77;;;8.40;;
36191;SDS011;22233;42.708;23.360;2024-03-23T05:42:24;10.73;;;8.35;;
36191;SDS011;22233;42.708;23.360;2024-03-23T05:44:50;12.15;;;8.30;;
36191;SDS011;22233;42.708;23.360;2024-03-23T05:47:15;13.38;;;8.15;;
36191;SDS011;22233;42.708;23.360;2024-03-23T05:49:41;12.25;;;8.88;;
36191;SDS011;22233;42.708;23.360;2024-03-23T05:52:08;14.63;;;8.40;;
36191;SDS011;22233;42.708;23.360;2024-03-23T05:54:33;12.63;;;9.18;;
36191;SDS011;22233;42.708;23.360;2024-03-23T05:56:59;10.10;;;8.45;;
36191;SDS011;22233;42.708;23.360;2024-03-23T05:59:24;12.70;;;8.55;;
36191;SDS011;22233;42.708;23.360;2024-03-23T06:01:50;12.38;;;8.73;;
36191;SDS011;22233;42.708;23.360;2024-03-23T06:04:15;11.60;;;8.02;;
36191;SDS011;22233;42.708;23.360;2024-03-23T06:06:41;12.13;;;8.27;;
36191;SDS011;22233;42.708;23.360;2024-03-23T06:09:06;14.25;;;9.75;;
36191;SDS011;22233;42.708;23.360;2024-03-23T06:11:31;14.25;;;9.43;;
36191;SDS011;22233;42.708;23.360;2024-03-23T06:13:57;17.77;;;9.50;;
36191;SDS011;22233;42.708;23.360;2024-03-23T06:16:22;14.80;;;9.90;;
36191;SDS011;22233;42.708;23.360;2024-03-23T06:18:52;15.82;;;10.55;;
36191;SDS011;22233;42.708;23.360;2024-03-23T06:21:17;13.50;;;10.10;;
36191;SDS011;22233;42.708;23.360;2024-03-23T06:23:43;19.73;;;10.38;;
36191;SDS011;22233;42.708;23.360;2024-03-23T06:26:19;14.63;;;9.57;;
36191;SDS011;22233;42.708;23.360;2024-03-23T06:28:45;16.70;;;10.68;;
36191;SDS011;22233;42.708;23.360;2024-03-23T06:31:11;12.27;;;9.43;;
36191;SDS011;22233;42.708;23.360;2024-03-23T06:33:37;19.05;;;9.88;;
36191;SDS011;22233;42.708;23.360;2024-03-23T06:36:03;16.60;;;10.00;;
36191;SDS011;22233;42.708;23.360;2024-03-23T06:38:29;15.82;;;10.80;;
36191;SDS011;22233;42.708;23.360;2024-03-23T06:40:54;13.93;;;9.68;;
36191;SDS011;22233;42.708;23.360;2024-03-23T06:43:20;14.45;;;9.95;;
36191;SDS011;22233;42.708;23.360;2024-03-23T06:45:52;14.18;;;11.02;;
36191;SDS011;22233;42.708;23.360;2024-03-23T06:48:18;13.32;;;10.07;;
36191;SDS011;22233;42.708;23.360;2024-03-23T06:50:44;19.15;;;10.27;;
36191;SDS011;22233;42.708;23.360;2024-03-23T06:53:09;21.02;;;11.13;;
36191;SDS011;22233;42.708;23.360;2024-03-23T06:55:35;13.60;;;10.25;;
36191;SDS011;22233;42.708;23.360;2024-03-23T06:58:00;24.10;;;11.70;;
36191;SDS011;22233;42.708;23.360;2024-03-23T07:00:25;16.45;;;11.50;;
36191;SDS011;22233;42.708;23.360;2024-03-23T07:02:51;16.98;;;11.50;;
36191;SDS011;22233;42.708;23.360;2024-03-23T07:05:16;15.80;;;11.75;;
36191;SDS011;22233;42.708;23.360;2024-03-23T07:07:42;14.15;;;11.13;;
36191;SDS011;22233;42.708;23.360;2024-03-23T07:10:07;16.80;;;12.07;;
36191;SDS011;22233;42.708;23.360;2024-03-23T07:12:32;17.63;;;12.10;;
36191;SDS011;22233;42.708;23.360;2024-03-23T07:14:58;17.90;;;11.70;;
36191;SDS011;22233;42.708;23.360;2024-03-23T07:17:23;20.95;;;12.30;;
36191;SDS011;22233;42.708;23.360;2024-03-23T07:19:49;20.15;;;13.20;;
36191;SDS011;22233;42.708;23.360;2024-03-23T07:22:14;17.00;;;11.25;;
36191;SDS011;22233;42.708;23.360;2024-03-23T07:24:39;19.33;;;11.75;;
36191;SDS011;22233;42.708;23.360;2024-03-23T07:27:05;17.60;;;12.02;;
36191;SDS011;22233;42.708;23.360;2024-03-23T07:29:34;18.50;;;11.95;;
36191;SDS011;22233;42.708;23.360;2024-03-23T07:32:00;19.73;;;12.05;;
36191;SDS011;22233;42.708;23.360;2024-03-23T07:34:26;15.75;;;10.30;;
36191;SDS011;22233;42.708;23.360;2024-03-23T07:36:51;20.00;;;11.95;;
36191;SDS011;22233;42.708;23.360;2024-03-23T07:39:16;14.57;;;11.98;;
36191;SDS011;22233;42.708;23.360;2024-03-23T07:41:44;16.90;;;10.65;;
36191;SDS011;22233;42.708;23.360;2024-03-23T07:44:10;14.57;;;10.82;;
36191;SDS011;22233;42.708;23.360;2024-03-23T07:46:35;17.73;;;12.20;;
36191;SDS011;22233;42.708;23.360;2024-03-23T07:49:00;14.25;;;10.65;;
36191;SDS011;22233;42.708;23.360;2024-03-23T07:51:26;22.63;;;12.20;;
36191;SDS011;22233;42.708;23.360;2024-03-23T07:53:51;24.17;;;18.13;;
36191;SDS011;22233;42.708;23.360;2024-03-23T07:56:18;21.10;;;15.43;;
36191;SDS011;22233;42.708;23.360;2024-03-23T07:58:44;20.83;;;11.80;;
36191;SDS011;22233;42.708;23.360;2024-03-23T08:03:37;20.15;;;12.32;;
36191;SDS011;22233;42.708;23.360;2024-03-23T08:06:36;15.38;;;10.70;;
36191;SDS011;22233;42.708;23.360;2024-03-23T08:08:55;17.65;;;9.65;;
36191;SDS011;22233;42.708;23.360;2024-03-23T08:11:28;14.38;;;9.38;;
36191;SDS011;22233;42.708;23.360;2024-03-23T08:13:54;13.93;;;9.07;;
36191;SDS011;22233;42.708;23.360;2024-03-23T08:16:21;14.32;;;8.70;;
36191;SDS011;22233;42.708;23.360;2024-03-23T08:18:47;14.65;;;9.27;;
36191;SDS011;22233;42.708;23.360;2024-03-23T08:21:12;11.73;;;9.40;;
36191;SDS011;22233;42.708;23.360;2024-03-23T08:23:38;16.02;;;9.52;;
36191;SDS011;22233;42.708;23.360;2024-03-23T08:26:07;14.30;;;9.05;;
36191;SDS011;22233;42.708;23.360;2024-03-23T08:28:34;13.32;;;9.23;;
36191;SDS011;22233;42.708;23.360;2024-03-23T08:31:00;12.35;;;8.45;;
36191;SDS011;22233;42.708;23.360;2024-03-23T08:33:33;13.38;;;8.50;;
36191;SDS011;22233;42.708;23.360;2024-03-23T08:36:04;12.80;;;8.80;;
36191;SDS011;22233;42.708;23.360;2024-03-23T08:38:32;10.75;;;9.00;;
36191;SDS011;22233;42.708;23.360;2024-03-23T08:40:58;13.00;;;8.77;;
36191;SDS011;22233;42.708;23.360;2024-03-23T08:43:24;12.63;;;7.95;;
36191;SDS011;22233;42.708;23.360;2024-03-23T08:45:50;10.05;;;7.38;;
36191;SDS011;22233;42.708;23.360;2024-03-23T08:48:15;12.55;;;8.45;;
36191;SDS011;22233;42.708;23.360;2024-03-23T08:50:41;12.75;;;8.05;;
36191;SDS011;22233;42.708;23.360;2024-03-23T08:53:06;12.07;;;8.55;;
36191;SDS011;22233;42.708;23.360;2024-03-23T08:55:31;11.13;;;7.88;;
36191;SDS011;22233;42.708;23.360;2024-03-23T08:57:56;11.60;;;8.18;;
36191;SDS011;22233;42.708;23.360;2024-03-23T09:00:22;11.93;;;9.02;;
36191;SDS011;22233;42.708;23.360;2024-03-23T09:02:47;9.43;;;7.78;;
36191;SDS011;22233;42.708;23.360;2024-03-23T09:05:13;9.50;;;8.00;;
36191;SDS011;22233;42.708;23.360;2024-03-23T09:07:38;12.07;;;8.75;;
36191;SDS011;22233;42.708;23.360;2024-03-23T09:10:04;12.18;;;8.45;;
36191;SDS011;22233;42.708;23.360;2024-03-23T09:12:29;12.23;;;7.88;;
36191;SDS011;22233;42.708;23.360;2024-03-23T09:14:55;12.27;;;7.55;;
36191;SDS011;22233;42.708;23.360;2024-03-23T09:17:20;12.60;;;7.70;;
36191;SDS011;22233;42.708;23.360;2024-03-23T09:19:46;10.82;;;8.10;;
36191;SDS011;22233;42.708;23.360;2024-03-23T09:22:11;13.48;;;7.30;;
36191;SDS011;22233;42.708;23.360;2024-03-23T09:24:36;11.30;;;8.77;;
36191;SDS011;22233;42.708;23.360;2024-03-23T09:27:04;11.55;;;7.90;;
36191;SDS011;22233;42.708;23.360;2024-03-23T09:29:29;12.95;;;7.93;;
36191;SDS011;22233;42.708;23.360;2024-03-23T09:31:55;15.05;;;8.98;;
36191;SDS011;22233;42.708;23.360;2024-03-23T09:34:20;9.20;;;8.18;;
36191;SDS011;22233;42.708;23.360;2024-03-23T09:36:46;13.02;;;8.02;;
36191;SDS011;22233;42.708;23.360;2024-03-23T09:39:12;13.35;;;8.32;;
36191;SDS011;22233;42.708;23.360;2024-03-23T09:41:38;15.57;;;9.52;;
36191;SDS011;22233;42.708;23.360;2024-03-23T09:44:04;13.18;;;8.93;;
36191;SDS011;22233;42.708;23.360;2024-03-23T09:46:30;15.07;;;10.25;;
36191;SDS011;22233;42.708;23.360;2024-03-23T09:48:59;15.27;;;9.18;;
36191;SDS011;22233;42.708;23.360;2024-03-23T09:51:25;13.13;;;8.52;;
36191;SDS011;22233;42.708;23.360;2024-03-23T09:53:50;12.25;;;8.90;;
36191;SDS011;22233;42.708;23.360;2024-03-23T09:56:17;11.52;;;9.13;;
36191;SDS011;22233;42.708;23.360;2024-03-23T09:58:43;13.02;;;9.02;;
36191;SDS011;22233;42.708;23.360;2024-03-23T10:01:08;13.35;;;9.80;;
36191;SDS011;22233;42.708;23.360;2024-03-23T10:03:42;14.63;;;9.60;;
36191;SDS011;22233;42.708;23.360;2024-03-23T10:06:08;15.13;;;9.15;;
36191;SDS011;22233;42.708;23.360;2024-03-23T10:08:33;17.45;;;9.52;;
36191;SDS011;22233;42.708;23.360;2024-03-23T10:11:12;13.25;;;8.75;;
36191;SDS011;22233;42.708;23.360;2024-03-23T10:13:41;18.05;;;8.98;;
36191;SDS011;22233;42.708;23.360;2024-03-23T10:16:08;11.50;;;8.57;;
36191;SDS011;22233;42.708;23.360;2024-03-23T10:18:37;12.05;;;9.25;;
36191;SDS011;22233;42.708;23.360;2024-03-23T10:21:07;11.63;;;8.48;;
36191;SDS011;22233;42.708;23.360;2024-03-23T10:23:36;11.95;;;8.13;;
36191;SDS011;22233;42.708;23.360;2024-03-23T10:28:58;13.18;;;8.32;;
36191;SDS011;22233;42.708;23.360;2024-03-23T10:31:32;13.70;;;8.05;;
36191;SDS011;22233;42.708;23.360;2024-03-23T10:33:58;10.82;;;8.35;;
36191;SDS011;22233;42.708;23.360;2024-03-23T10:36:25;11.68;;;8.13;;
36191;SDS011;22233;42.708;23.360;2024-03-23T10:38:51;14.55;;;8.82;;
36191;SDS011;22233;42.708;23.360;2024-03-23T10:41:17;14.27;;;8.25;;
36191;SDS011;22233;42.708;23.360;2024-03-23T10:43:45;11.05;;;8.02;;
36191;SDS011;22233;42.708;23.360;2024-03-23T10:46:12;9.73;;;7.45;;
36191;SDS011;22233;42.708;23.360;2024-03-23T10:48:38;12.45;;;7.63;;
36191;SDS011;22233;42.708;23.360;2024-03-23T10:51:03;11.68;;;8.07;;
36191;SDS011;22233;42.708;23.360;2024-03-23T10:53:31;11.65;;;7.28;;
36191;SDS011;22233;42.708;23.360;2024-03-23T10:55:58;8.00;;;7.15;;
36191;SDS011;22233;42.708;23.360;2024-03-23T10:58:27;12.05;;;7.03;;
36191;SDS011;22233;42.708;23.360;2024-03-23T11:01:07;9.88;;;7.28;;
36191;SDS011;22233;42.708;23.360;2024-03-23T11:03:36;10.38;;;6.80;;
36191;SDS011;22233;42.708;23.360;2024-03-23T11:06:03;12.93;;;7.27;;
36191;SDS011;22233;42.708;23.360;2024-03-23T11:08:33;9.82;;;6.45;;
36191;SDS011;22233;42.708;23.360;2024-03-23T11:11:11;10.63;;;5.93;;
36191;SDS011;22233;42.708;23.360;2024-03-23T11:13:40;9.57;;;6.25;;
36191;SDS011;22233;42.708;23.360;2024-03-23T11:16:24;15.23;;;6.05;;
36191;SDS011;22233;42.708;23.360;2024-03-23T11:18:53;9.35;;;6.10;;
36191;SDS011;22233;42.708;23.360;2024-03-23T11:24:17;9.43;;;5.72;;
36191;SDS011;22233;42.708;23.360;2024-03-23T11:26:44;5.97;;;5.28;;
36191;SDS011;22233;42.708;23.360;2024-03-23T11:29:09;8.82;;;5.95;;
36191;SDS011;22233;42.708;23.360;2024-03-23T11:31:48;9.68;;;5.60;;
36191;SDS011;22233;42.708;23.360;2024-03-23T11:34:16;9.50;;;5.85;;
36191;SDS011;22233;42.708;23.360;2024-03-23T11:36:42;8.23;;;5.78;;
36191;SDS011;22233;42.708;23.360;2024-03-23T11:39:11;8.43;;;5.32;;
36191;SDS011;22233;42.708;23.360;2024-03-23T11:41:45;6.18;;;5.03;;
36191;SDS011;22233;42.708;23.360;2024-03-23T11:44:14;10.02;;;5.78;;
36191;SDS011;22233;42.708;23.360;2024-03-23T11:47:07;10.82;;;5.88;;
36191;SDS011;22233;42.708;23.360;2024-03-23T11:49:34;9.95;;;5.75;;
36191;SDS011;22233;42.708;23.360;2024-03-23T11:52:05;6.35;;;5.05;;
36191;SDS011;22233;42.708;23.360;2024-03-23T11:54:31;8.38;;;4.70;;
36191;SDS011;22233;42.708;23.360;2024-03-23T11:56:57;8.07;;;4.80;;
36191;SDS011;22233;42.708;23.360;2024-03-23T11:59:31;6.05;;;4.60;;
36191;SDS011;22233;42.708;23.360;2024-03-23T12:02:07;7.00;;;5.32;;
36191;SDS011;22233;42.708;23.360;2024-03-23T12:04:33;9.82;;;4.63;;
36191;SDS011;22233;42.708;23.360;2024-03-23T12:09:38;7.47;;;5.47;;
36191;SDS011;22233;42.708;23.360;2024-03-23T12:14:33;6.97;;;5.45;;
36191;SDS011;22233;42.708;23.360;2024-03-23T12:17:07;8.10;;;5.38;;
36191;SDS011;22233;42.708;23.360;2024-03-23T12:19:36;10.85;;;4.90;;
36191;SDS011;22233;42.708;23.360;2024-03-23T12:22:02;9.63;;;5.00;;
36191;SDS011;22233;42.708;23.360;2024-03-23T12:24:28;6.32;;;4.65;;
36191;SDS011;22233;42.708;23.360;2024-03-23T12:26:54;6.28;;;4.85;;
36191;SDS011;22233;42.708;23.360;2024-03-23T12:29:20;6.28;;;4.90;;
36191;SDS011;22233;42.708;23.360;2024-03-23T12:31:45;8.02;;;4.88;;
36191;SDS011;22233;42.708;23.360;2024-03-23T12:34:10;6.07;;;5.38;;
36191;SDS011;22233;42.708;23.360;2024-03-23T12:36:36;11.38;;;5.75;;
36191;SDS011;22233;42.708;23.360;2024-03-23T12:39:01;11.40;;;5.65;;
36191;SDS011;22233;42.708;23.360;2024-03-23T12:41:27;6.75;;;4.78;;
36191;SDS011;22233;42.708;23.360;2024-03-23T12:43:52;7.82;;;5.30;;
36191;SDS011;22233;42.708;23.360;2024-03-23T12:46:17;8.00;;;5.47;;
36191;SDS011;22233;42.708;23.360;2024-03-23T12:48:46;6.60;;;4.15;;
36191;SDS011;22233;42.708;23.360;2024-03-23T12:51:11;8.25;;;4.82;;
36191;SDS011;22233;42.708;23.360;2024-03-23T12:53:37;6.93;;;4.63;;
36191;SDS011;22233;42.708;23.360;2024-03-23T12:56:02;8.85;;;4.95;;
36191;SDS011;22233;42.708;23.360;2024-03-23T12:58:28;7.13;;;4.47;;
36191;SDS011;22233;42.708;23.360;2024-03-23T13:00:53;7.40;;;4.50;;
36191;SDS011;22233;42.708;23.360;2024-03-23T13:03:19;7.18;;;4.55;;
36191;SDS011;22233;42.708;23.360;2024-03-23T13:05:51;7.80;;;4.18;;
36191;SDS011;22233;42.708;23.360;2024-03-23T13:08:16;6.60;;;4.60;;
36191;SDS011;22233;42.708;23.360;2024-03-23T13:10:42;7.95;;;4.53;;
36191;SDS011;22233;42.708;23.360;2024-03-23T13:13:08;6.97;;;4.25;;
36191;SDS011;22233;42.708;23.360;2024-03-23T13:15:33;7.07;;;3.95;;
36191;SDS011;22233;42.708;23.360;2024-03-23T13:17:58;7.63;;;4.45;;
36191;SDS011;22233;42.708;23.360;2024-03-23T13:20:24;4.07;;;3.35;;
36191;SDS011;22233;42.708;23.360;2024-03-23T13:22:49;7.47;;;4.07;;
36191;SDS011;22233;42.708;23.360;2024-03-23T13:25:17;5.32;;;3.53;;
36191;SDS011;22233;42.708;23.360;2024-03-23T13:27:43;6.17;;;4.07;;
36191;SDS011;22233;42.708;23.360;2024-03-23T13:30:09;6.00;;;3.40;;
36191;SDS011;22233;42.708;23.360;2024-03-23T13:32:35;5.80;;;3.30;;
36191;SDS011;22233;42.708;23.360;2024-03-23T13:35:00;2.28;;;1.67;;
36191;SDS011;22233;42.708;23.360;2024-03-23T13:37:26;3.35;;;1.42;;
36191;SDS011;22233;42.708;23.360;2024-03-23T13:39:51;5.07;;;3.05;;
36191;SDS011;22233;42.708;23.360;2024-03-23T13:42:17;2.58;;;1.45;;
36191;SDS011;22233;42.708;23.360;2024-03-23T13:44:42;6.95;;;1.80;;
36191;SDS011;22233;42.708;23.360;2024-03-23T13:47:08;4.40;;;1.70;;
36191;SDS011;22233;42.708;23.360;2024-03-23T13:49:33;1.55;;;1.20;;
36191;SDS011;22233;42.708;23.360;2024-03-23T13:51:59;1.77;;;1.60;;
36191;SDS011;22233;42.708;23.360;2024-03-23T13:54:28;2.08;;;1.38;;
36191;SDS011;22233;42.708;23.360;2024-03-23T13:56:54;1.50;;;1.30;;
36191;SDS011;22233;42.708;23.360;2024-03-23T13:59:21;1.95;;;1.02;;
36191;SDS011;22233;42.708;23.360;2024-03-23T14:01:48;1.90;;;1.30;;
36191;SDS011;22233;42.708;23.360;2024-03-23T14:04:13;1.10;;;1.00;;
36191;SDS011;22233;42.708;23.360;2024-03-23T14:06:41;2.30;;;1.02;;
36191;SDS011;22233;42.708;23.360;2024-03-23T14:09:07;0.98;;;0.88;;
36191;SDS011;22233;42.708;23.360;2024-03-23T14:11:35;1.80;;;0.80;;
36191;SDS011;22233;42.708;23.360;2024-03-23T14:14:02;1.40;;;1.10;;
36191;SDS011;22233;42.708;23.360;2024-03-23T14:16:28;1.65;;;1.50;;
36191;SDS011;22233;42.708;23.360;2024-03-23T14:18:54;1.38;;;1.17;;
36191;SDS011;22233;42.708;23.360;2024-03-23T14:21:19;2.00;;;1.13;;
36191;SDS011;22233;42.708;23.360;2024-03-23T14:23:45;1.25;;;0.95;;
36191;SDS011;22233;42.708;23.360;2024-03-23T14:26:10;2.25;;;0.98;;
36191;SDS011;22233;42.708;23.360;2024-03-23T14:28:36;1.30;;;1.13;;
36191;SDS011;22233;42.708;23.360;2024-03-23T14:31:01;3.70;;;1.33;;
36191;SDS011;22233;42.708;23.360;2024-03-23T14:33:28;1.20;;;1.02;;
36191;SDS011;22233;42.708;23.360;2024-03-23T14:35:54;6.32;;;1.35;;
36191;SDS011;22233;42.708;23.360;2024-03-23T14:38:23;2.25;;;1.30;;
36191;SDS011;22233;42.708;23.360;2024-03-23T14:40:49;1.45;;;1.20;;
36191;SDS011;22233;42.708;23.360;2024-03-23T14:43:14;5.50;;;2.05;;
36191;SDS011;22233;42.708;23.360;2024-03-23T14:48:37;1.98;;;1.83;;
36191;SDS011;22233;42.708;23.360;2024-03-23T14:51:04;4.72;;;1.60;;
36191;SDS011;22233;42.708;23.360;2024-03-23T14:53:30;4.88;;;3.05;;
36191;SDS011;22233;42.708;23.360;2024-03-23T14:55:56;3.67;;;1.90;;
36191;SDS011;22233;42.708;23.360;2024-03-23T14:58:22;3.42;;;1.88;;
36191;SDS011;22233;42.708;23.360;2024-03-23T15:00:50;2.22;;;1.60;;
36191;SDS011;22233;42.708;23.360;2024-03-23T15:03:17;2.05;;;1.52;;
36191;SDS011;22233;42.708;23.360;2024-03-23T15:05:51;1.88;;;1.50;;
36191;SDS011;22233;42.708;23.360;2024-03-23T15:08:17;1.52;;;1.33;;
36191;SDS011;22233;42.708;23.360;2024-03-23T15:10:43;2.10;;;1.35;;
36191;SDS011;22233;42.708;23.360;2024-03-23T15:13:08;2.30;;;1.55;;
36191;SDS011;22233;42.708;23.360;2024-03-23T15:15:37;2.78;;;1.60;;
36191;SDS011;22233;42.708;23.360;2024-03-23T15:18:04;2.28;;;1.75;;
36191;SDS011;22233;42.708;23.360;2024-03-23T15:20:29;3.42;;;2.03;;
36191;SDS011;22233;42.708;23.360;2024-03-23T15:22:55;3.58;;;2.70;;
36191;SDS011;22233;42.708;23.360;2024-03-23T15:25:20;3.92;;;2.30;;
36191;SDS011;22233;42.708;23.360;2024-03-23T15:27:48;2.83;;;1.50;;
36191;SDS011;22233;42.708;23.360;2024-03-23T15:30:14;6.32;;;2.67;;
36191;SDS011;22233;42.708;23.360;2024-03-23T15:32:39;2.17;;;1.98;;
36191;SDS011;22233;42.708;23.360;2024-03-23T15:35:04;3.40;;;2.17;;